createdAt,value
2018-06-15T00:02:18.053Z,99.00
2018-06-15T00:07:20.175Z,99.70
2018-06-15T00:12:22.295Z,99.90
2018-06-15T00:17:24.421Z,99.90
2018-06-15T00:22:26.544Z,99.90
2018-06-15T00:27:28.634Z,99.90
2018-06-15T00:32:30.753Z,99.90
2018-06-15T00:37:32.933Z,99.90
2018-06-15T00:42:35.073Z,99.90
2018-06-15T00:47:37.164Z,99.90
2018-06-15T00:52:39.304Z,99.90
2018-06-15T00:57:43.650Z,99.90
2018-06-15T01:02:45.969Z,99.90
2018-06-15T01:07:48.089Z,99.90
2018-06-15T01:12:50.210Z,99.90
2018-06-15T01:17:52.333Z,99.90
2018-06-15T01:22:54.458Z,99.90
2018-06-15T01:27:56.585Z,99.90
2018-06-15T01:32:58.751Z,99.90
2018-06-15T01:38:00.868Z,99.90
2018-06-15T01:43:02.993Z,99.90
2018-06-15T01:48:05.338Z,99.90
2018-06-15T01:53:07.601Z,99.90
2018-06-15T01:58:09.701Z,99.90
2018-06-15T02:03:11.846Z,99.90
2018-06-15T02:08:14.521Z,99.90
2018-06-15T02:13:16.627Z,99.90
2018-06-15T02:18:18.804Z,99.90
2018-06-15T02:23:20.958Z,99.90
2018-06-15T02:28:23.162Z,99.90
2018-06-15T02:33:25.330Z,99.90
2018-06-15T02:38:27.675Z,99.90
2018-06-15T02:43:29.829Z,99.90
2018-06-15T02:48:31.990Z,99.90
2018-06-15T02:53:34.142Z,99.90
2018-06-15T02:58:36.305Z,99.90
2018-06-15T03:03:38.526Z,99.90
2018-06-15T03:08:40.671Z,99.90
2018-06-15T03:13:42.874Z,99.90
2018-06-15T03:18:45.026Z,99.90
2018-06-15T03:23:47.175Z,99.90
2018-06-15T03:28:49.323Z,99.90
2018-06-15T03:33:52.134Z,99.90
2018-06-15T03:38:54.282Z,99.90
2018-06-15T03:43:56.817Z,99.90
2018-06-15T03:48:58.959Z,99.90
2018-06-15T03:54:01.642Z,99.90
2018-06-15T03:59:04.088Z,99.90
2018-06-15T04:04:06.217Z,99.90
2018-06-15T04:09:09.103Z,99.90
2018-06-15T04:14:11.258Z,99.90
2018-06-15T04:19:13.425Z,99.90
2018-06-15T04:24:15.573Z,99.90
2018-06-15T04:29:17.713Z,99.90
2018-06-15T04:34:19.935Z,99.90
2018-06-15T04:39:22.146Z,99.90
2018-06-15T04:44:24.322Z,99.90
2018-06-15T04:49:26.614Z,99.90
2018-06-15T04:54:28.802Z,99.90
2018-06-15T04:59:31.050Z,99.90
2018-06-15T05:04:34.016Z,99.90
2018-06-15T05:09:36.194Z,99.90
2018-06-15T05:14:38.402Z,99.90
2018-06-15T05:19:40.581Z,99.90
2018-06-15T05:24:42.769Z,99.90
2018-06-15T05:29:44.926Z,99.90
2018-06-15T05:34:47.066Z,99.90
2018-06-15T05:39:49.219Z,99.90
2018-06-15T05:44:51.549Z,99.90
2018-06-15T05:49:53.710Z,99.90
2018-06-15T05:54:55.864Z,99.90
2018-06-15T05:59:58.000Z,99.90
2018-06-15T06:05:00.187Z,99.90
2018-06-15T06:10:02.427Z,99.90
2018-06-15T06:15:04.702Z,99.90
2018-06-15T06:20:07.897Z,99.90
2018-06-15T06:25:10.120Z,99.90
2018-06-15T06:30:12.278Z,99.90
2018-06-15T06:35:14.490Z,99.90
2018-06-15T06:40:16.651Z,99.90
2018-06-15T06:45:18.909Z,99.90
2018-06-15T06:50:21.098Z,99.90
2018-06-15T06:55:23.278Z,99.90
2018-06-15T07:00:26.412Z,99.90
2018-06-15T07:05:28.637Z,99.90
2018-06-15T07:10:30.849Z,99.90
2018-06-15T07:15:33.058Z,99.90
2018-06-15T07:20:35.258Z,99.90
2018-06-15T07:25:37.438Z,97.40
2018-06-15T07:30:39.601Z,90.50
2018-06-15T07:35:41.822Z,83.70
2018-06-15T07:40:44.094Z,85.70
2018-06-15T07:45:46.233Z,80.40
2018-06-15T07:50:48.387Z,78.20
2018-06-15T07:55:50.526Z,73.60
2018-06-15T08:00:52.851Z,75.10
2018-06-15T08:05:55.029Z,77.30
2018-06-15T08:10:57.201Z,75.90
2018-06-15T08:15:59.347Z,71.00
2018-06-15T08:21:01.514Z,73.10
2018-06-15T08:26:03.874Z,70.40
2018-06-15T08:31:06.036Z,65.70
2018-06-15T08:36:08.198Z,64.10
2018-06-15T08:41:10.342Z,63.40
2018-06-15T08:46:12.513Z,65.40
2018-06-15T08:51:14.693Z,66.50
2018-06-15T08:56:16.909Z,68.10
2018-06-15T09:01:19.081Z,70.40
2018-06-15T09:06:21.225Z,73.50
2018-06-15T09:11:23.376Z,72.20
2018-06-15T09:16:25.561Z,72.50
2018-06-15T09:21:27.882Z,70.00
2018-06-15T09:26:30.034Z,65.40
2018-06-15T09:31:32.171Z,64.90
2018-06-15T09:36:34.352Z,61.10
2018-06-15T09:41:36.505Z,60.00
2018-06-15T09:46:38.737Z,61.10
2018-06-15T09:51:40.864Z,59.40
2018-06-15T09:56:43.036Z,60.50
2018-06-15T10:01:45.327Z,59.30
2018-06-15T10:06:47.585Z,61.70
2018-06-15T10:11:49.750Z,59.80
2018-06-15T10:16:51.922Z,60.20
2018-06-15T10:21:54.067Z,62.10
2018-06-15T10:26:56.245Z,60.30
2018-06-15T10:31:58.415Z,59.90
2018-06-15T10:37:00.582Z,59.80
2018-06-15T10:42:02.762Z,59.90
2018-06-15T10:47:04.920Z,58.60
2018-06-15T10:52:07.054Z,57.40
2018-06-15T10:57:09.559Z,57.00
2018-06-15T11:02:11.726Z,58.00
2018-06-15T11:07:13.880Z,59.40
2018-06-15T11:12:16.040Z,57.40
2018-06-15T11:17:18.178Z,55.70
2018-06-15T11:22:20.329Z,55.30
2018-06-15T11:27:22.486Z,57.30
2018-06-15T11:32:24.677Z,56.40
2018-06-15T11:37:26.869Z,53.30
2018-06-15T11:42:29.065Z,52.00
2018-06-15T11:47:31.246Z,56.10
2018-06-15T11:52:33.406Z,56.80
2018-06-15T11:57:35.585Z,57.80
2018-06-15T12:02:37.803Z,54.60
2018-06-15T12:07:39.977Z,56.00
2018-06-15T12:12:42.133Z,56.80
2018-06-15T12:17:44.413Z,55.50
2018-06-15T12:22:46.593Z,55.40
2018-06-15T12:27:48.765Z,52.00
2018-06-15T12:32:50.945Z,55.60
2018-06-15T12:37:53.494Z,53.90
2018-06-15T12:42:55.649Z,53.80
2018-06-15T12:47:57.774Z,52.60
2018-06-15T12:52:59.917Z,53.50
2018-06-15T12:58:02.066Z,51.90
2018-06-15T13:03:04.240Z,52.80
2018-06-15T13:08:06.436Z,51.90
2018-06-15T13:13:08.571Z,49.80
2018-06-15T13:18:10.731Z,50.30
2018-06-15T13:23:12.903Z,50.30
2018-06-15T13:28:15.046Z,49.10
2018-06-15T13:33:17.233Z,51.30
2018-06-15T13:38:19.410Z,48.70
2018-06-15T13:43:21.593Z,49.80
2018-06-15T13:48:23.773Z,51.50
2018-06-15T13:53:25.958Z,51.90
2018-06-15T13:58:28.158Z,50.30
2018-06-15T14:03:30.342Z,53.70
2018-06-15T14:08:32.526Z,53.40
2018-06-15T14:13:34.715Z,53.10
2018-06-15T14:18:37.042Z,52.20
2018-06-15T14:23:39.288Z,54.10
2018-06-15T14:28:41.479Z,54.20
2018-06-15T14:33:43.682Z,54.70
2018-06-15T14:38:45.855Z,53.90
2018-06-15T14:43:48.066Z,53.10
2018-06-15T14:48:50.228Z,53.40
2018-06-15T14:53:52.402Z,55.90
2018-06-15T14:58:54.570Z,55.60
2018-06-15T15:03:56.734Z,54.90
2018-06-15T15:08:58.890Z,56.00
2018-06-15T15:14:01.105Z,55.40
2018-06-15T15:19:03.804Z,54.70
2018-06-15T15:24:06.012Z,55.20
2018-06-15T15:29:08.167Z,54.20
2018-06-15T15:34:10.361Z,54.30
2018-06-15T15:39:12.525Z,54.70
2018-06-15T15:44:14.705Z,54.70
2018-06-15T15:49:16.882Z,54.80
2018-06-15T15:54:19.074Z,54.40
2018-06-15T15:59:21.231Z,53.90
2018-06-15T16:04:23.429Z,54.40
2018-06-15T16:09:25.583Z,54.50
2018-06-15T16:14:27.761Z,54.80
2018-06-15T16:19:29.922Z,54.40
2018-06-15T16:24:32.086Z,55.20
2018-06-15T16:34:36.802Z,57.00
2018-06-15T16:39:39.046Z,57.40
2018-06-15T16:44:41.229Z,57.10
2018-06-15T16:49:43.418Z,57.90
2018-06-15T16:54:45.940Z,56.80
2018-06-15T16:59:48.137Z,58.10
2018-06-15T17:04:50.306Z,57.80
2018-06-15T17:09:52.501Z,58.20
2018-06-15T17:14:54.621Z,59.40
2018-06-15T17:19:56.785Z,60.20
2018-06-15T17:24:59.081Z,60.70
2018-06-15T17:30:01.265Z,60.90
2018-06-15T17:35:03.512Z,61.20
2018-06-15T17:40:05.749Z,60.50
2018-06-15T17:45:07.922Z,60.80
2018-06-15T17:50:10.103Z,62.20
2018-06-15T17:55:12.402Z,63.30
2018-06-15T18:00:14.573Z,63.50
2018-06-15T18:05:16.759Z,64.00
2018-06-15T18:10:18.920Z,65.60
2018-06-15T18:15:21.115Z,66.40
2018-06-15T18:20:23.285Z,66.20
2018-06-15T18:25:25.486Z,68.30
2018-06-15T18:30:28.804Z,69.80
2018-06-15T18:35:31.555Z,68.10
2018-06-15T18:40:33.720Z,70.10
2018-06-15T18:45:35.910Z,69.30
2018-06-15T18:50:38.076Z,69.70
2018-06-15T18:55:40.378Z,70.30
2018-06-15T19:00:42.552Z,71.60
2018-06-15T19:05:44.766Z,72.20
2018-06-15T19:10:46.942Z,72.00
2018-06-15T19:15:49.168Z,72.40
2018-06-15T19:20:51.353Z,72.10
2018-06-15T19:25:53.525Z,71.80
2018-06-15T19:30:55.758Z,73.30
2018-06-15T19:35:58.000Z,73.70
2018-06-15T19:46:02.478Z,72.30
2018-06-15T19:51:04.930Z,73.30
2018-06-15T19:56:07.150Z,74.30
2018-06-15T20:01:09.526Z,75.70
2018-06-15T20:06:11.722Z,76.60
2018-06-15T20:11:13.951Z,76.90
2018-06-15T20:16:16.168Z,76.60
2018-06-15T20:21:18.361Z,76.40
2018-06-15T20:26:20.577Z,75.70
2018-06-15T20:31:22.768Z,76.20
2018-06-15T20:36:25.037Z,76.80
2018-06-15T20:41:27.181Z,76.90
2018-06-15T20:46:29.383Z,77.30
2018-06-15T20:51:31.590Z,78.00
2018-06-15T20:56:33.763Z,79.00
2018-06-15T21:01:35.962Z,79.30
2018-06-15T21:06:39.118Z,79.00
2018-06-15T21:11:41.270Z,78.40
2018-06-15T21:16:43.458Z,78.30
2018-06-15T21:21:45.637Z,77.50
2018-06-15T21:26:47.793Z,78.50
2018-06-15T21:31:50.004Z,78.60
2018-06-15T21:36:52.161Z,77.00
2018-06-15T21:41:54.289Z,77.40
2018-06-15T21:46:56.474Z,77.20
2018-06-15T21:51:58.633Z,77.80
2018-06-15T21:57:00.784Z,78.90
2018-06-15T22:02:02.965Z,79.60
2018-06-15T22:07:05.136Z,80.60
2018-06-15T22:12:07.303Z,80.60
2018-06-15T22:17:09.431Z,80.00
2018-06-15T22:22:11.587Z,81.10
2018-06-15T22:27:13.729Z,80.30
2018-06-15T22:32:16.051Z,81.00
2018-06-15T22:37:18.178Z,81.50
2018-06-15T22:42:20.311Z,81.50
2018-06-15T22:47:22.473Z,82.00
2018-06-15T22:52:24.614Z,82.50
2018-06-15T22:57:26.756Z,84.70
2018-06-15T23:02:28.901Z,85.50
2018-06-15T23:07:31.069Z,86.60
2018-06-15T23:12:33.248Z,90.90
2018-06-15T23:17:35.413Z,98.90
2018-06-15T23:22:37.650Z,97.50
2018-06-15T23:27:39.793Z,98.20
2018-06-15T23:32:41.977Z,99.90
2018-06-15T23:37:44.138Z,99.90
2018-06-15T23:42:46.321Z,99.90
2018-06-15T23:47:48.983Z,99.90
2018-06-15T23:52:51.573Z,99.90
2018-06-15T23:57:53.749Z,99.90
